createdAt,value
2022-11-24T00:00:15.213Z,99928.25
2022-11-24T00:05:38.400Z,99935.81
2022-11-24T00:08:07.704Z,99943.75
2022-11-24T00:10:36.022Z,99938.59
2022-11-24T00:13:02.514Z,99941.31
2022-11-24T00:15:28.951Z,99947.69
2022-11-24T00:20:41.454Z,99954.44
2022-11-24T00:23:09.736Z,99950.50
2022-11-24T00:25:38.051Z,99951.69
2022-11-24T00:28:04.540Z,99942.94
2022-11-24T00:30:31.814Z,99941.72
2022-11-24T00:35:53.850Z,99940.94
2022-11-24T00:38:20.254Z,99939.41
2022-11-24T00:40:46.657Z,99932.25
2022-11-24T00:43:15.888Z,99929.13
2022-11-24T00:45:42.371Z,99936.22
2022-11-24T00:50:57.477Z,99948.91
2022-11-24T00:53:23.893Z,99944.16
2022-11-24T00:55:50.401Z,99946.09
2022-11-24T00:58:19.571Z,99944.13
2022-11-24T01:00:47.848Z,99936.59
2022-11-24T01:06:11.994Z,99943.34
2022-11-24T01:08:38.414Z,99936.19
2022-11-24T01:11:04.814Z,99941.00
2022-11-24T01:13:31.515Z,99931.91
2022-11-24T01:15:59.896Z,99934.25
2022-11-24T01:21:10.685Z,99937.81
2022-11-24T01:23:37.108Z,99939.81
2022-11-24T01:26:04.445Z,99930.28
2022-11-24T01:28:30.837Z,99942.56
2022-11-24T01:31:00.081Z,99942.59
2022-11-24T01:36:22.390Z,99950.50
2022-11-24T01:38:50.721Z,99946.13
2022-11-24T01:41:17.134Z,99941.75
2022-11-24T01:43:43.512Z,99940.59
2022-11-24T01:46:09.989Z,99943.34
2022-11-24T01:51:24.102Z,99937.44
2022-11-24T01:53:53.257Z,99935.47
2022-11-24T01:56:20.506Z,99938.19
2022-11-24T01:58:46.897Z,99931.06
2022-11-24T02:01:14.186Z,99933.44
2022-11-24T02:06:27.161Z,99935.00
2022-11-24T02:08:53.559Z,99937.75
2022-11-24T02:11:22.735Z,99938.16
2022-11-24T02:13:51.873Z,99935.81
2022-11-24T02:16:18.744Z,99934.25
2022-11-24T02:21:29.297Z,99933.00
2022-11-24T02:23:55.674Z,99938.97
2022-11-24T02:26:22.026Z,99938.94
2022-11-24T02:28:48.464Z,99937.44
2022-11-24T02:31:14.915Z,99934.63
2022-11-24T02:36:35.508Z,99935.41
2022-11-24T02:39:02.003Z,99935.47
2022-11-24T02:41:28.359Z,99929.91
2022-11-24T02:43:54.729Z,99925.53
2022-11-24T02:46:21.149Z,99938.16
2022-11-24T02:51:32.549Z,99928.72
2022-11-24T02:53:58.899Z,99929.88
2022-11-24T02:56:25.266Z,99928.69
2022-11-24T02:58:51.653Z,99923.13
2022-11-24T03:01:18.191Z,99930.25
2022-11-24T03:06:28.408Z,99931.47
2022-11-24T03:08:54.731Z,99927.06
2022-11-24T03:11:21.134Z,99930.66
2022-11-24T03:13:48.344Z,99936.59
2022-11-24T03:16:17.507Z,99943.38
2022-11-24T03:21:38.072Z,99931.84
2022-11-24T03:24:04.443Z,99931.47
2022-11-24T03:26:30.764Z,99935.44
2022-11-24T03:28:57.102Z,99933.03
2022-11-24T03:31:23.462Z,99931.50
2022-11-24T03:36:33.654Z,99933.44
2022-11-24T03:39:00.850Z,99925.09
2022-11-24T03:41:27.263Z,99937.00
2022-11-24T03:43:53.598Z,99936.59
2022-11-24T03:46:19.994Z,99942.16
2022-11-24T03:48:46.363Z,99946.53
2022-11-24T03:51:13.007Z,99944.53
2022-11-24T03:53:39.545Z,99948.50
2022-11-24T03:56:05.889Z,99956.03
2022-11-24T03:58:32.218Z,99950.91
2022-11-24T04:00:58.548Z,99946.88
2022-11-24T04:03:24.871Z,99952.88
2022-11-24T04:05:51.173Z,99941.75
2022-11-24T04:08:17.539Z,99952.03
2022-11-24T04:10:43.921Z,99955.63
2022-11-24T04:13:10.263Z,99958.00
2022-11-24T04:15:36.564Z,99956.38
2022-11-24T04:18:02.894Z,99952.44
2022-11-24T04:20:29.411Z,99953.63
2022-11-24T04:22:55.762Z,99933.81
2022-11-24T04:25:22.170Z,99931.06
2022-11-24T04:27:48.553Z,99938.22
2022-11-24T04:30:15.757Z,99945.34
2022-11-24T04:32:42.098Z,99943.75
2022-11-24T04:35:09.304Z,99954.06
2022-11-24T04:37:35.649Z,99953.66
2022-11-24T04:40:01.997Z,99953.22
2022-11-24T04:42:28.328Z,99951.25
2022-11-24T04:44:54.677Z,99952.88
2022-11-24T04:47:21.002Z,99966.69
2022-11-24T04:49:47.350Z,99967.47
2022-11-24T04:52:13.696Z,99982.94
2022-11-24T04:54:40.045Z,99973.81
2022-11-24T04:57:06.419Z,99963.50
2022-11-24T04:59:32.788Z,99966.69
2022-11-24T05:01:59.179Z,99967.09
2022-11-24T05:04:25.572Z,99962.34
2022-11-24T05:09:58.954Z,99969.44
2022-11-24T05:12:26.042Z,99972.66
2022-11-24T05:14:52.397Z,99971.06
2022-11-24T05:17:18.768Z,99977.38
2022-11-24T05:19:45.111Z,99981.34
2022-11-24T05:24:55.551Z,99982.16
2022-11-24T05:27:21.901Z,99979.78
2022-11-24T05:29:48.284Z,99974.59
2022-11-24T05:32:14.636Z,99975.41
2022-11-24T05:34:40.928Z,99979.34
2022-11-24T05:40:01.325Z,99997.75
2022-11-24T05:42:27.700Z,99996.13
2022-11-24T05:44:54.057Z,100000.56
2022-11-24T05:47:20.410Z,99994.56
2022-11-24T05:49:46.756Z,99996.56
2022-11-24T05:55:07.124Z,99997.72
2022-11-24T05:57:33.550Z,100001.63
2022-11-24T05:59:59.886Z,100007.19
2022-11-24T06:02:26.317Z,100014.78
2022-11-24T06:04:52.741Z,100019.50
2022-11-24T06:10:02.878Z,100019.06
2022-11-24T06:12:29.197Z,100021.44
2022-11-24T06:14:55.544Z,100022.66
2022-11-24T06:17:21.896Z,100019.88
2022-11-24T06:19:48.215Z,100026.97
2022-11-24T06:25:10.121Z,100025.03
2022-11-24T06:27:37.799Z,100026.97
2022-11-24T06:30:05.210Z,100041.53
2022-11-24T06:32:32.624Z,100034.97
2022-11-24T06:34:59.082Z,100037.06
2022-11-24T06:40:09.796Z,100030.34
2022-11-24T06:42:37.188Z,100040.63
2022-11-24T06:45:08.708Z,100025.19
2022-11-24T06:47:37.166Z,100019.41
2022-11-24T06:50:03.996Z,100030.75
2022-11-24T06:55:25.422Z,100031.03
2022-11-24T06:57:52.175Z,100030.97
2022-11-24T07:00:18.902Z,100031.78
2022-11-24T07:02:48.394Z,100034.22
2022-11-24T07:05:15.126Z,100033.81
2022-11-24T07:10:25.680Z,100043.31
2022-11-24T07:12:52.918Z,100038.91
2022-11-24T07:15:19.278Z,100033.69
2022-11-24T07:17:46.519Z,100042.78
2022-11-24T07:20:12.876Z,100050.31
2022-11-24T07:25:24.502Z,100055.13
2022-11-24T07:27:50.929Z,100058.69
2022-11-24T07:30:18.639Z,100063.06
2022-11-24T07:32:46.000Z,100054.31
2022-11-24T07:35:12.453Z,100053.53
2022-11-24T07:40:33.977Z,100050.34
2022-11-24T07:43:01.413Z,100051.13
2022-11-24T07:45:28.913Z,100049.94
2022-11-24T07:47:56.530Z,100055.06
2022-11-24T07:50:23.009Z,100056.19
2022-11-24T07:55:34.433Z,100052.97
2022-11-24T07:58:02.651Z,100058.56
2022-11-24T08:00:29.723Z,100059.75
2022-11-24T08:02:57.164Z,100060.94
2022-11-24T08:05:23.640Z,100070.03
2022-11-24T08:10:44.305Z,100076.78
2022-11-24T08:13:10.846Z,100075.16
2022-11-24T08:15:37.343Z,100069.22
2022-11-24T08:18:03.859Z,100063.66
2022-11-24T08:20:30.384Z,100066.41
2022-11-24T08:25:40.792Z,100067.22
2022-11-24T08:28:08.208Z,100069.56
2022-11-24T08:30:34.907Z,100068.00
2022-11-24T08:33:02.349Z,100072.00
2022-11-24T08:35:29.758Z,100075.97
2022-11-24T08:40:52.220Z,100076.72
2022-11-24T08:43:18.767Z,100076.72
2022-11-24T08:45:46.325Z,100067.16
2022-11-24T08:48:13.751Z,100072.75
2022-11-24T08:50:41.132Z,100080.28
2022-11-24T08:55:52.809Z,100077.09
2022-11-24T08:58:19.298Z,100081.84
2022-11-24T09:00:46.333Z,100083.84
2022-11-24T09:03:12.783Z,100083.44
2022-11-24T09:05:54.452Z,100086.56
2022-11-24T09:11:16.955Z,100090.59
2022-11-24T09:13:43.727Z,100088.19
2022-11-24T09:16:10.207Z,100091.34
2022-11-24T09:18:36.659Z,100100.44
2022-11-24T09:21:03.148Z,100103.50
2022-11-24T09:26:15.843Z,100098.34
2022-11-24T09:28:42.305Z,100100.06
2022-11-24T09:31:08.838Z,100106.09
2022-11-24T09:33:35.336Z,100102.56
2022-11-24T09:36:01.770Z,100104.13
2022-11-24T09:41:22.117Z,100117.19
2022-11-24T09:43:49.535Z,100121.59
2022-11-24T09:46:16.034Z,100122.34
2022-11-24T09:48:42.566Z,100128.69
2022-11-24T09:51:09.027Z,100127.50
2022-11-24T09:56:30.349Z,100129.16
2022-11-24T09:58:56.862Z,100129.97
2022-11-24T10:01:23.401Z,100130.75
2022-11-24T10:03:49.909Z,100131.56
2022-11-24T10:06:16.392Z,100125.19
2022-11-24T10:11:38.056Z,100127.97
2022-11-24T10:14:04.601Z,100127.19
2022-11-24T10:16:31.195Z,100121.22
2022-11-24T10:18:57.715Z,100121.22
2022-11-24T10:21:25.100Z,100123.22
2022-11-24T10:26:35.411Z,100112.88
2022-11-24T10:29:02.794Z,100107.31
2022-11-24T10:31:29.313Z,100112.50
2022-11-24T10:33:55.815Z,100110.91
2022-11-24T10:36:22.270Z,100106.94
2022-11-24T10:41:32.981Z,100107.72
2022-11-24T10:43:59.437Z,100102.59
2022-11-24T10:46:25.957Z,100108.91
2022-11-24T10:48:52.445Z,100114.06
2022-11-24T10:51:18.922Z,100108.50
2022-11-24T10:53:45.413Z,100116.84
2022-11-24T10:56:12.808Z,100115.66
2022-11-24T10:58:40.262Z,100118.44
2022-11-24T11:01:07.697Z,100112.06
2022-11-24T11:03:35.107Z,100108.50
2022-11-24T11:06:01.546Z,100115.63
2022-11-24T11:08:28.040Z,100111.25
2022-11-24T11:10:55.418Z,100114.03
2022-11-24T11:13:21.875Z,100121.59
2022-11-24T11:15:48.394Z,100119.22
2022-11-24T11:18:15.901Z,100122.78
2022-11-24T11:20:43.271Z,100113.66
2022-11-24T11:23:10.654Z,100117.22
2022-11-24T11:25:37.100Z,100124.38
2022-11-24T11:28:09.109Z,100122.78
2022-11-24T11:36:11.007Z,100124.38
2022-11-24T11:38:37.754Z,100131.13
2022-11-24T11:41:05.164Z,100124.38
2022-11-24T11:43:32.480Z,100126.00
2022-11-24T11:45:59.051Z,100139.06
2022-11-24T11:48:25.598Z,100138.25
2022-11-24T11:51:22.268Z,100145.41
2022-11-24T11:53:40.382Z,100147.41
2022-11-24T11:56:06.889Z,100149.00
2022-11-24T11:58:33.343Z,100140.66
2022-11-24T12:01:00.744Z,100146.63
2022-11-24T12:03:27.266Z,100143.44
2022-11-24T12:05:54.639Z,100138.66
2022-11-24T12:08:21.765Z,100139.88
2022-11-24T12:10:48.319Z,100143.47
2022-11-24T12:13:14.777Z,100136.28
2022-11-24T12:15:42.234Z,100138.66
2022-11-24T12:18:21.512Z,100150.59
2022-11-24T12:20:55.202Z,100143.19
2022-11-24T12:23:22.588Z,100136.16
2022-11-24T12:25:49.066Z,100136.19
2022-11-24T12:28:15.548Z,100139.00
2022-11-24T12:30:42.032Z,100122.00
2022-11-24T12:33:09.370Z,100127.50
2022-11-24T12:35:36.839Z,100131.81
2022-11-24T12:38:03.265Z,100130.56
2022-11-24T12:40:29.707Z,100128.91
2022-11-24T12:42:56.173Z,100135.25
2022-11-24T12:45:22.611Z,100121.34
2022-11-24T12:47:49.930Z,100124.91
2022-11-24T12:50:16.356Z,100128.06
2022-11-24T12:52:42.780Z,100121.31
2022-11-24T12:55:10.019Z,100121.72
2022-11-24T13:00:31.578Z,100127.66
2022-11-24T13:02:59.079Z,100127.25
2022-11-24T13:05:26.509Z,100129.22
2022-11-24T13:07:53.032Z,100123.66
2022-11-24T13:10:21.487Z,100127.25
2022-11-24T13:16:07.026Z,100132.41
2022-11-24T13:18:37.326Z,100131.22
2022-11-24T13:21:03.796Z,100136.38
2022-11-24T13:23:31.059Z,100128.81
2022-11-24T13:25:58.359Z,100137.16
2022-11-24T13:28:53.976Z,100128.00
2022-11-24T13:31:12.912Z,100127.63
2022-11-24T13:33:40.252Z,100131.16
2022-11-24T13:36:07.556Z,100129.19
2022-11-24T13:38:34.832Z,100137.50
2022-11-24T13:41:21.255Z,100137.13
2022-11-24T13:43:50.401Z,100141.09
2022-11-24T13:46:16.996Z,100136.72
2022-11-24T13:48:44.296Z,100132.75
2022-11-24T13:51:11.561Z,100142.28
2022-11-24T13:53:38.851Z,100141.47
2022-11-24T13:56:06.220Z,100133.53
2022-11-24T13:58:32.623Z,100140.31
2022-11-24T14:00:59.062Z,100145.47
2022-11-24T14:03:26.388Z,100142.69
2022-11-24T14:05:52.839Z,100141.47
2022-11-24T14:08:22.795Z,100149.00
2022-11-24T14:10:50.142Z,100151.41
2022-11-24T14:16:13.404Z,100152.19
2022-11-24T14:18:40.716Z,100156.13
2022-11-24T14:21:08.043Z,100157.31
2022-11-24T14:23:35.314Z,100158.03
2022-11-24T14:26:01.730Z,100163.50
2022-11-24T14:31:23.061Z,100167.84
2022-11-24T14:33:49.588Z,100169.41
2022-11-24T14:36:17.922Z,100178.13
2022-11-24T14:38:46.221Z,100180.63
2022-11-24T14:41:14.532Z,100175.91
2022-11-24T14:46:27.938Z,100177.94
2022-11-24T14:48:55.250Z,100179.13
2022-11-24T14:51:24.470Z,100185.44
2022-11-24T14:53:50.879Z,100187.03
2022-11-24T14:56:17.276Z,100184.66
2022-11-24T15:01:41.308Z,100188.22
2022-11-24T15:04:11.647Z,100185.44
2022-11-24T15:06:40.384Z,100190.97
2022-11-24T15:09:07.666Z,100192.19
2022-11-24T15:11:34.086Z,100188.22
2022-11-24T15:16:57.743Z,100192.19
2022-11-24T15:19:25.051Z,100195.38
2022-11-24T15:21:51.482Z,100198.53
2022-11-24T15:24:17.939Z,100208.06
2022-11-24T15:26:44.314Z,100215.59
2022-11-24T15:31:54.611Z,100214.81
2022-11-24T15:34:21.905Z,100228.31
2022-11-24T15:36:48.326Z,100218.00
2022-11-24T15:39:14.737Z,100216.44
2022-11-24T15:41:41.133Z,100219.19
2022-11-24T15:47:01.623Z,100222.34
2022-11-24T15:49:28.022Z,100223.53
2022-11-24T15:51:54.461Z,100231.09
2022-11-24T15:54:22.726Z,100228.22
2022-11-24T15:56:51.016Z,100220.69
2022-11-24T16:02:15.169Z,100231.34
2022-11-24T16:04:42.475Z,100235.28
2022-11-24T16:07:08.894Z,100234.16
2022-11-24T16:09:35.310Z,100233.06
2022-11-24T16:12:01.673Z,100235.47
2022-11-24T16:17:12.376Z,100245.00
2022-11-24T16:19:41.808Z,100239.03
2022-11-24T16:22:11.317Z,100244.22
2022-11-24T16:24:37.687Z,100241.44
2022-11-24T16:27:04.128Z,100249.41
2022-11-24T16:32:16.124Z,100256.94
2022-11-24T16:34:42.467Z,100256.13
2022-11-24T16:37:09.700Z,100254.97
2022-11-24T16:39:36.043Z,100259.31
2022-11-24T16:42:02.396Z,100263.69
2022-11-24T16:47:23.875Z,100262.50
2022-11-24T16:49:50.267Z,100268.88
2022-11-24T16:52:16.619Z,100270.88
2022-11-24T16:54:42.960Z,100273.63
2022-11-24T16:57:14.593Z,100270.06
2022-11-24T17:02:36.473Z,100270.47
2022-11-24T17:05:02.815Z,100279.97
2022-11-24T17:07:30.062Z,100278.78
2022-11-24T17:09:56.571Z,100276.38
2022-11-24T17:12:23.772Z,100289.06
2022-11-24T17:18:01.307Z,100283.91
2022-11-24T17:20:33.782Z,100298.19
2022-11-24T17:23:01.087Z,100302.56
2022-11-24T17:25:34.776Z,100298.22
2022-11-24T17:28:02.018Z,100300.59
2022-11-24T17:33:20.772Z,100299.00
2022-11-24T17:35:47.174Z,100314.88
2022-11-24T17:38:19.805Z,100319.63
2022-11-24T17:40:46.248Z,100310.13
2022-11-24T17:43:18.776Z,100318.06
2022-11-24T17:48:37.808Z,100327.19
2022-11-24T17:51:04.256Z,100330.34
2022-11-24T17:53:39.782Z,100332.34
2022-11-24T17:56:08.066Z,100335.53
2022-11-24T17:58:43.171Z,100339.50
2022-11-24T18:04:02.796Z,100332.34
2022-11-24T18:06:29.211Z,100340.31
2022-11-24T18:08:55.648Z,100342.28
2022-11-24T18:11:31.407Z,100337.13
2022-11-24T18:14:01.091Z,100343.88
2022-11-24T18:19:28.806Z,100341.88
2022-11-24T18:21:57.095Z,100346.66
2022-11-24T18:24:30.117Z,100340.31
2022-11-24T18:26:58.387Z,100341.09
2022-11-24T18:29:30.806Z,100337.13
2022-11-24T18:31:57.337Z,100345.03
2022-11-24T18:34:25.690Z,100342.69
2022-11-24T18:37:00.827Z,100346.25
2022-11-24T18:39:27.327Z,100345.88
2022-11-24T18:41:54.575Z,100339.53
2022-11-24T18:44:21.090Z,100337.94
2022-11-24T18:49:43.644Z,100338.72
2022-11-24T18:52:10.935Z,100335.53
2022-11-24T18:54:37.524Z,100342.28
2022-11-24T18:57:04.131Z,100335.16
2022-11-24T18:59:30.555Z,100335.94
2022-11-24T19:04:42.795Z,100338.31
2022-11-24T19:07:10.145Z,100346.25
2022-11-24T19:09:36.654Z,100337.13
2022-11-24T19:12:04.191Z,100333.94
2022-11-24T19:14:31.648Z,100344.25
2022-11-24T19:19:43.221Z,100349.44
2022-11-24T19:22:09.658Z,100347.06
2022-11-24T19:24:37.089Z,100349.03
2022-11-24T19:27:04.585Z,100353.00
2022-11-24T19:29:31.006Z,100347.44
2022-11-24T19:34:52.058Z,100351.81
2022-11-24T19:37:18.498Z,100351.44
2022-11-24T19:39:44.913Z,100351.81
2022-11-24T19:42:12.230Z,100357.38
2022-11-24T19:44:39.511Z,100353.41
2022-11-24T19:49:59.825Z,100355.78
2022-11-24T19:52:27.324Z,100364.50
2022-11-24T19:54:54.621Z,100366.88
2022-11-24T19:57:21.969Z,100368.09
2022-11-24T19:59:48.453Z,100370.47
2022-11-24T20:04:59.916Z,100371.66
2022-11-24T20:07:26.420Z,100378.81
2022-11-24T20:09:52.891Z,100378.38
2022-11-24T20:12:20.240Z,100380.78
2022-11-24T20:14:46.640Z,100383.16
2022-11-24T20:20:07.803Z,100388.34
2022-11-24T20:22:34.219Z,100393.09
2022-11-24T20:25:00.640Z,100396.66
2022-11-24T20:27:27.065Z,100391.13
2022-11-24T20:29:54.397Z,100389.13
2022-11-24T20:35:18.392Z,100389.13
2022-11-24T20:37:45.978Z,100396.66
2022-11-24T20:40:13.300Z,100400.63
2022-11-24T20:42:40.582Z,100401.44
2022-11-24T20:45:07.860Z,100405.78
2022-11-24T20:50:20.054Z,100407.00
2022-11-24T20:52:47.363Z,100412.56
2022-11-24T20:55:13.799Z,100414.53
2022-11-24T20:57:40.238Z,100416.13
2022-11-24T21:00:06.669Z,100422.84
2022-11-24T21:05:17.150Z,100426.84
2022-11-24T21:07:44.627Z,100426.84
2022-11-24T21:10:11.054Z,100428.03
2022-11-24T21:12:37.540Z,100432.00
2022-11-24T21:15:04.006Z,100441.16
2022-11-24T21:20:25.309Z,100451.50
2022-11-24T21:22:51.783Z,100449.06
2022-11-24T21:25:18.291Z,100450.81
2022-11-24T21:27:44.969Z,100457.97
2022-11-24T21:30:11.466Z,100454.25
2022-11-24T21:35:23.331Z,100462.00
2022-11-24T21:37:49.770Z,100459.78
2022-11-24T21:40:17.176Z,100464.16
2022-11-24T21:42:43.664Z,100457.31
2022-11-24T21:45:11.064Z,100450.44
2022-11-24T21:50:32.405Z,100455.25
2022-11-24T21:53:03.327Z,100451.34
2022-11-24T21:55:31.034Z,100460.50
2022-11-24T21:57:57.521Z,100460.16
2022-11-24T22:00:24.079Z,100459.38
2022-11-24T22:05:34.485Z,100456.63
2022-11-24T22:08:00.927Z,100450.28
2022-11-24T22:10:27.461Z,100452.66
2022-11-24T22:12:54.813Z,100448.31
2022-11-24T22:15:22.230Z,100444.34
2022-11-24T22:20:42.912Z,100448.69
2022-11-24T22:23:09.361Z,100442.75
2022-11-24T22:25:36.713Z,100449.91
2022-11-24T22:28:04.140Z,100449.09
2022-11-24T22:30:31.533Z,100447.91
2022-11-24T22:35:42.855Z,100466.16
2022-11-24T22:38:10.236Z,100462.19
2022-11-24T22:40:36.677Z,100464.16
2022-11-24T22:43:03.992Z,100464.94
2022-11-24T22:45:31.299Z,100461.78
2022-11-24T22:50:42.482Z,100466.16
2022-11-24T22:53:09.797Z,100461.78
2022-11-24T22:55:36.219Z,100466.94
2022-11-24T22:58:02.622Z,100470.50
2022-11-24T23:00:29.976Z,100471.69
2022-11-24T23:02:57.369Z,100473.28
2022-11-24T23:05:23.797Z,100476.44
2022-11-24T23:07:52.235Z,100474.50
2022-11-24T23:10:18.782Z,100473.28
2022-11-24T23:12:46.071Z,100469.31
2022-11-24T23:15:13.341Z,100472.88
2022-11-24T23:17:39.790Z,100473.28
2022-11-24T23:20:07.055Z,100469.72
2022-11-24T23:22:36.983Z,100474.09
2022-11-24T23:25:05.317Z,100470.88
2022-11-24T23:27:33.630Z,100471.72
2022-11-24T23:30:02.000Z,100478.03
2022-11-24T23:32:30.299Z,100479.25
2022-11-24T23:34:59.458Z,100473.69
2022-11-24T23:37:52.188Z,100473.69
2022-11-24T23:40:16.873Z,100473.66
2022-11-24T23:42:43.404Z,100479.22
2022-11-24T23:45:09.841Z,100479.22
2022-11-24T23:47:39.010Z,100483.59
2022-11-24T23:50:05.446Z,100475.28
2022-11-24T23:52:31.874Z,100473.28
2022-11-24T23:54:58.372Z,100476.44
2022-11-24T23:57:26.630Z,100481.59
2022-11-24T23:59:54.973Z,100479.25
